sensor_id;sensor_type;location;lat;lon;timestamp;P1;durP1;ratioP1;P2;durP2;ratioP2
46411;SDS011;32113;42.012;24.870;2023-06-14T00:02:17;7.28;;;5.53;;
46411;SDS011;32113;42.012;24.870;2023-06-14T00:04:42;10.93;;;5.75;;
46411;SDS011;32113;42.012;24.870;2023-06-14T00:07:08;6.07;;;5.35;;
46411;SDS011;32113;42.012;24.870;2023-06-14T00:09:34;7.78;;;5.68;;
46411;SDS011;32113;42.012;24.870;2023-06-14T00:12:00;9.48;;;5.75;;
46411;SDS011;32113;42.012;24.870;2023-06-14T00:14:26;6.50;;;5.57;;
46411;SDS011;32113;42.012;24.870;2023-06-14T00:16:51;6.72;;;5.50;;
46411;SDS011;32113;42.012;24.870;2023-06-14T00:19:23;6.40;;;5.57;;
46411;SDS011;32113;42.012;24.870;2023-06-14T00:21:50;9.15;;;5.68;;
46411;SDS011;32113;42.012;24.870;2023-06-14T00:24:17;9.20;;;6.20;;
46411;SDS011;32113;42.012;24.870;2023-06-14T00:26:42;9.00;;;5.68;;
46411;SDS011;32113;42.012;24.870;2023-06-14T00:29:08;8.35;;;5.90;;
46411;SDS011;32113;42.012;24.870;2023-06-14T00:31:33;8.45;;;6.40;;
46411;SDS011;32113;42.012;24.870;2023-06-14T00:33:58;8.00;;;5.80;;
46411;SDS011;32113;42.012;24.870;2023-06-14T00:36:24;12.32;;;6.22;;
46411;SDS011;32113;42.012;24.870;2023-06-14T00:38:49;9.27;;;5.78;;
46411;SDS011;32113;42.012;24.870;2023-06-14T00:41:15;9.30;;;5.75;;
46411;SDS011;32113;42.012;24.870;2023-06-14T00:43:40;8.85;;;5.90;;
46411;SDS011;32113;42.012;24.870;2023-06-14T00:46:06;9.95;;;6.40;;
46411;SDS011;32113;42.012;24.870;2023-06-14T00:48:31;10.60;;;6.32;;
46411;SDS011;32113;42.012;24.870;2023-06-14T00:50:58;8.50;;;6.00;;
46411;SDS011;32113;42.012;24.870;2023-06-14T00:53:28;9.13;;;6.30;;
46411;SDS011;32113;42.012;24.870;2023-06-14T00:55:55;11.25;;;6.30;;
46411;SDS011;32113;42.012;24.870;2023-06-14T00:58:21;8.27;;;6.05;;
46411;SDS011;32113;42.012;24.870;2023-06-14T01:00:47;7.38;;;5.75;;
46411;SDS011;32113;42.012;24.870;2023-06-14T01:03:13;7.35;;;6.43;;
46411;SDS011;32113;42.012;24.870;2023-06-14T01:05:43;7.25;;;6.32;;
46411;SDS011;32113;42.012;24.870;2023-06-14T01:08:24;9.07;;;5.57;;
46411;SDS011;32113;42.012;24.870;2023-06-14T01:11:01;7.55;;;5.95;;
46411;SDS011;32113;42.012;24.870;2023-06-14T01:13:43;8.10;;;6.13;;
46411;SDS011;32113;42.012;24.870;2023-06-14T01:16:11;11.80;;;5.82;;
46411;SDS011;32113;42.012;24.870;2023-06-14T01:18:37;7.95;;;6.00;;
46411;SDS011;32113;42.012;24.870;2023-06-14T01:21:03;11.77;;;6.57;;
46411;SDS011;32113;42.012;24.870;2023-06-14T01:23:33;10.30;;;6.20;;
46411;SDS011;32113;42.012;24.870;2023-06-14T01:25:59;8.77;;;6.50;;
46411;SDS011;32113;42.012;24.870;2023-06-14T01:28:28;11.32;;;7.32;;
46411;SDS011;32113;42.012;24.870;2023-06-14T01:30:57;8.77;;;6.80;;
46411;SDS011;32113;42.012;24.870;2023-06-14T01:33:26;9.52;;;6.53;;
46411;SDS011;32113;42.012;24.870;2023-06-14T01:35:53;12.68;;;7.20;;
46411;SDS011;32113;42.012;24.870;2023-06-14T01:38:22;7.82;;;7.00;;
46411;SDS011;32113;42.012;24.870;2023-06-14T01:40:49;9.05;;;7.13;;
46411;SDS011;32113;42.012;24.870;2023-06-14T01:43:16;9.23;;;6.78;;
46411;SDS011;32113;42.012;24.870;2023-06-14T01:45:44;11.02;;;7.05;;
46411;SDS011;32113;42.012;24.870;2023-06-14T01:48:12;12.30;;;6.93;;
46411;SDS011;32113;42.012;24.870;2023-06-14T01:50:38;8.27;;;6.82;;
46411;SDS011;32113;42.012;24.870;2023-06-14T01:53:07;10.57;;;7.00;;
46411;SDS011;32113;42.012;24.870;2023-06-14T01:55:32;10.32;;;7.03;;
46411;SDS011;32113;42.012;24.870;2023-06-14T01:58:02;8.68;;;6.68;;
46411;SDS011;32113;42.012;24.870;2023-06-14T02:00:28;13.95;;;6.85;;
46411;SDS011;32113;42.012;24.870;2023-06-14T02:02:54;10.38;;;7.00;;
46411;SDS011;32113;42.012;24.870;2023-06-14T02:05:20;10.80;;;7.03;;
46411;SDS011;32113;42.012;24.870;2023-06-14T02:07:46;10.85;;;7.18;;
46411;SDS011;32113;42.012;24.870;2023-06-14T02:10:12;9.85;;;6.88;;
46411;SDS011;32113;42.012;24.870;2023-06-14T02:12:38;7.88;;;7.07;;
46411;SDS011;32113;42.012;24.870;2023-06-14T02:15:03;9.95;;;6.72;;
46411;SDS011;32113;42.012;24.870;2023-06-14T02:17:30;10.38;;;6.63;;
46411;SDS011;32113;42.012;24.870;2023-06-14T02:19:56;11.02;;;7.22;;
46411;SDS011;32113;42.012;24.870;2023-06-14T02:22:22;11.02;;;6.75;;
46411;SDS011;32113;42.012;24.870;2023-06-14T02:24:48;8.35;;;6.90;;
46411;SDS011;32113;42.012;24.870;2023-06-14T02:27:13;13.57;;;7.22;;
46411;SDS011;32113;42.012;24.870;2023-06-14T02:29:39;12.23;;;6.60;;
46411;SDS011;32113;42.012;24.870;2023-06-14T02:32:05;11.60;;;7.00;;
46411;SDS011;32113;42.012;24.870;2023-06-14T02:34:32;11.05;;;6.85;;
46411;SDS011;32113;42.012;24.870;2023-06-14T02:36:58;9.73;;;6.45;;
46411;SDS011;32113;42.012;24.870;2023-06-14T02:39:24;7.97;;;6.70;;
46411;SDS011;32113;42.012;24.870;2023-06-14T02:41:49;11.73;;;6.65;;
46411;SDS011;32113;42.012;24.870;2023-06-14T02:44:17;7.93;;;6.85;;
46411;SDS011;32113;42.012;24.870;2023-06-14T02:46:44;12.50;;;6.88;;
46411;SDS011;32113;42.012;24.870;2023-06-14T02:49:10;8.00;;;6.88;;
46411;SDS011;32113;42.012;24.870;2023-06-14T02:51:36;11.15;;;7.03;;
46411;SDS011;32113;42.012;24.870;2023-06-14T02:54:01;10.13;;;6.88;;
46411;SDS011;32113;42.012;24.870;2023-06-14T02:56:26;8.43;;;7.40;;
46411;SDS011;32113;42.012;24.870;2023-06-14T02:58:52;9.18;;;7.22;;
46411;SDS011;32113;42.012;24.870;2023-06-14T03:01:18;13.18;;;7.38;;
46411;SDS011;32113;42.012;24.870;2023-06-14T03:03:45;12.32;;;7.38;;
46411;SDS011;32113;42.012;24.870;2023-06-14T03:06:11;10.15;;;7.72;;
46411;SDS011;32113;42.012;24.870;2023-06-14T03:08:38;12.32;;;7.18;;
46411;SDS011;32113;42.012;24.870;2023-06-14T03:11:05;12.45;;;7.32;;
46411;SDS011;32113;42.012;24.870;2023-06-14T03:13:30;12.80;;;7.78;;
46411;SDS011;32113;42.012;24.870;2023-06-14T03:15:57;12.32;;;8.18;;
46411;SDS011;32113;42.012;24.870;2023-06-14T03:18:23;9.43;;;6.82;;
46411;SDS011;32113;42.012;24.870;2023-06-14T03:20:48;8.80;;;7.55;;
46411;SDS011;32113;42.012;24.870;2023-06-14T03:23:14;10.30;;;7.80;;
46411;SDS011;32113;42.012;24.870;2023-06-14T03:25:39;9.18;;;7.80;;
46411;SDS011;32113;42.012;24.870;2023-06-14T03:28:07;12.68;;;7.90;;
46411;SDS011;32113;42.012;24.870;2023-06-14T03:30:32;12.80;;;7.97;;
46411;SDS011;32113;42.012;24.870;2023-06-14T03:32:58;18.17;;;8.35;;
46411;SDS011;32113;42.012;24.870;2023-06-14T03:35:26;14.48;;;7.97;;
46411;SDS011;32113;42.012;24.870;2023-06-14T03:37:52;10.50;;;7.50;;
46411;SDS011;32113;42.012;24.870;2023-06-14T03:40:17;12.48;;;6.78;;
46411;SDS011;32113;42.012;24.870;2023-06-14T03:42:43;12.55;;;7.95;;
46411;SDS011;32113;42.012;24.870;2023-06-14T03:45:09;19.00;;;9.52;;
46411;SDS011;32113;42.012;24.870;2023-06-14T03:47:35;13.48;;;7.75;;
46411;SDS011;32113;42.012;24.870;2023-06-14T03:50:01;11.23;;;7.65;;
46411;SDS011;32113;42.012;24.870;2023-06-14T03:52:27;12.17;;;7.30;;
46411;SDS011;32113;42.012;24.870;2023-06-14T03:54:53;13.77;;;8.00;;
46411;SDS011;32113;42.012;24.870;2023-06-14T03:57:18;9.40;;;8.38;;
46411;SDS011;32113;42.012;24.870;2023-06-14T03:59:45;16.33;;;8.52;;
46411;SDS011;32113;42.012;24.870;2023-06-14T04:02:10;12.55;;;9.10;;
46411;SDS011;32113;42.012;24.870;2023-06-14T04:04:36;12.65;;;9.48;;
46411;SDS011;32113;42.012;24.870;2023-06-14T04:07:02;15.00;;;10.00;;
46411;SDS011;32113;42.012;24.870;2023-06-14T04:09:31;12.35;;;10.30;;
46411;SDS011;32113;42.012;24.870;2023-06-14T04:11:56;11.65;;;9.88;;
46411;SDS011;32113;42.012;24.870;2023-06-14T04:14:22;12.30;;;9.30;;
46411;SDS011;32113;42.012;24.870;2023-06-14T04:16:48;12.00;;;9.85;;
46411;SDS011;32113;42.012;24.870;2023-06-14T04:19:14;10.70;;;9.57;;
46411;SDS011;32113;42.012;24.870;2023-06-14T04:21:40;15.35;;;9.82;;
46411;SDS011;32113;42.012;24.870;2023-06-14T04:24:06;12.90;;;9.70;;
46411;SDS011;32113;42.012;24.870;2023-06-14T04:26:37;21.83;;;9.98;;
46411;SDS011;32113;42.012;24.870;2023-06-14T04:29:04;16.58;;;9.55;;
46411;SDS011;32113;42.012;24.870;2023-06-14T04:31:30;16.90;;;10.50;;
46411;SDS011;32113;42.012;24.870;2023-06-14T04:33:58;15.13;;;9.80;;
46411;SDS011;32113;42.012;24.870;2023-06-14T04:36:24;14.40;;;10.50;;
46411;SDS011;32113;42.012;24.870;2023-06-14T04:38:52;14.48;;;11.20;;
46411;SDS011;32113;42.012;24.870;2023-06-14T04:41:20;15.20;;;11.00;;
46411;SDS011;32113;42.012;24.870;2023-06-14T04:43:47;15.43;;;11.48;;
46411;SDS011;32113;42.012;24.870;2023-06-14T04:46:14;21.85;;;14.60;;
46411;SDS011;32113;42.012;24.870;2023-06-14T04:48:40;22.38;;;16.75;;
46411;SDS011;32113;42.012;24.870;2023-06-14T04:51:07;19.95;;;15.00;;
46411;SDS011;32113;42.012;24.870;2023-06-14T04:53:33;19.98;;;15.20;;
46411;SDS011;32113;42.012;24.870;2023-06-14T04:55:59;19.52;;;13.30;;
46411;SDS011;32113;42.012;24.870;2023-06-14T04:58:26;14.17;;;10.80;;
46411;SDS011;32113;42.012;24.870;2023-06-14T05:00:52;12.90;;;10.23;;
46411;SDS011;32113;42.012;24.870;2023-06-14T05:03:18;11.80;;;10.00;;
46411;SDS011;32113;42.012;24.870;2023-06-14T05:05:46;17.90;;;10.60;;
46411;SDS011;32113;42.012;24.870;2023-06-14T05:08:11;14.00;;;10.68;;
46411;SDS011;32113;42.012;24.870;2023-06-14T05:10:36;13.27;;;10.98;;
46411;SDS011;32113;42.012;24.870;2023-06-14T05:13:02;13.45;;;11.45;;
46411;SDS011;32113;42.012;24.870;2023-06-14T05:15:28;14.52;;;11.82;;
46411;SDS011;32113;42.012;24.870;2023-06-14T05:17:54;13.32;;;11.55;;
46411;SDS011;32113;42.012;24.870;2023-06-14T05:20:20;14.85;;;11.00;;
46411;SDS011;32113;42.012;24.870;2023-06-14T05:22:48;13.40;;;11.93;;
46411;SDS011;32113;42.012;24.870;2023-06-14T05:25:16;16.10;;;12.20;;
46411;SDS011;32113;42.012;24.870;2023-06-14T05:27:42;17.75;;;11.95;;
46411;SDS011;32113;42.012;24.870;2023-06-14T05:30:07;15.60;;;10.68;;
46411;SDS011;32113;42.012;24.870;2023-06-14T05:32:33;16.33;;;11.15;;
46411;SDS011;32113;42.012;24.870;2023-06-14T05:34:59;20.52;;;12.23;;
46411;SDS011;32113;42.012;24.870;2023-06-14T05:37:24;19.42;;;11.65;;
46411;SDS011;32113;42.012;24.870;2023-06-14T05:39:50;42.60;;;15.93;;
46411;SDS011;32113;42.012;24.870;2023-06-14T05:42:15;21.02;;;13.00;;
46411;SDS011;32113;42.012;24.870;2023-06-14T05:44:41;18.17;;;11.73;;
46411;SDS011;32113;42.012;24.870;2023-06-14T05:47:06;16.90;;;11.65;;
46411;SDS011;32113;42.012;24.870;2023-06-14T05:49:31;14.00;;;12.05;;
46411;SDS011;32113;42.012;24.870;2023-06-14T05:51:57;15.48;;;11.55;;
46411;SDS011;32113;42.012;24.870;2023-06-14T05:54:22;15.90;;;11.68;;
46411;SDS011;32113;42.012;24.870;2023-06-14T05:56:48;18.00;;;11.75;;
46411;SDS011;32113;42.012;24.870;2023-06-14T05:59:13;13.52;;;11.32;;
46411;SDS011;32113;42.012;24.870;2023-06-14T06:01:38;13.63;;;12.15;;
46411;SDS011;32113;42.012;24.870;2023-06-14T06:04:05;16.35;;;12.65;;
46411;SDS011;32113;42.012;24.870;2023-06-14T06:06:31;15.13;;;11.80;;
46411;SDS011;32113;42.012;24.870;2023-06-14T06:08:57;13.75;;;10.82;;
46411;SDS011;32113;42.012;24.870;2023-06-14T06:11:22;18.50;;;11.70;;
46411;SDS011;32113;42.012;24.870;2023-06-14T06:13:48;23.13;;;11.38;;
46411;SDS011;32113;42.012;24.870;2023-06-14T06:16:14;14.63;;;10.88;;
46411;SDS011;32113;42.012;24.870;2023-06-14T06:18:40;19.48;;;10.30;;
46411;SDS011;32113;42.012;24.870;2023-06-14T06:21:05;14.63;;;10.00;;
46411;SDS011;32113;42.012;24.870;2023-06-14T06:23:31;11.70;;;9.63;;
46411;SDS011;32113;42.012;24.870;2023-06-14T06:25:57;12.90;;;10.43;;
46411;SDS011;32113;42.012;24.870;2023-06-14T06:28:22;15.13;;;10.95;;
46411;SDS011;32113;42.012;24.870;2023-06-14T06:30:47;13.20;;;10.05;;
46411;SDS011;32113;42.012;24.870;2023-06-14T06:33:13;12.75;;;11.18;;
46411;SDS011;32113;42.012;24.870;2023-06-14T06:35:39;14.85;;;12.27;;
46411;SDS011;32113;42.012;24.870;2023-06-14T06:38:04;13.32;;;10.20;;
46411;SDS011;32113;42.012;24.870;2023-06-14T06:40:30;11.13;;;9.43;;
46411;SDS011;32113;42.012;24.870;2023-06-14T06:42:56;14.13;;;9.57;;
46411;SDS011;32113;42.012;24.870;2023-06-14T06:45:21;16.42;;;9.77;;
46411;SDS011;32113;42.012;24.870;2023-06-14T06:47:48;11.93;;;10.13;;
46411;SDS011;32113;42.012;24.870;2023-06-14T06:50:13;18.75;;;10.60;;
46411;SDS011;32113;42.012;24.870;2023-06-14T06:52:39;12.73;;;8.95;;
46411;SDS011;32113;42.012;24.870;2023-06-14T06:55:05;11.73;;;9.07;;
46411;SDS011;32113;42.012;24.870;2023-06-14T06:57:30;12.55;;;8.93;;
46411;SDS011;32113;42.012;24.870;2023-06-14T06:59:56;10.85;;;9.75;;
46411;SDS011;32113;42.012;24.870;2023-06-14T07:02:22;17.63;;;9.90;;
46411;SDS011;32113;42.012;24.870;2023-06-14T07:04:47;12.23;;;9.02;;
46411;SDS011;32113;42.012;24.870;2023-06-14T07:07:13;12.40;;;8.93;;
46411;SDS011;32113;42.012;24.870;2023-06-14T07:09:38;8.57;;;7.70;;
46411;SDS011;32113;42.012;24.870;2023-06-14T07:12:04;9.68;;;7.78;;
46411;SDS011;32113;42.012;24.870;2023-06-14T07:14:29;13.73;;;8.32;;
46411;SDS011;32113;42.012;24.870;2023-06-14T07:16:55;11.63;;;8.35;;
46411;SDS011;32113;42.012;24.870;2023-06-14T07:19:21;20.70;;;9.52;;
46411;SDS011;32113;42.012;24.870;2023-06-14T07:21:46;13.68;;;8.75;;
46411;SDS011;32113;42.012;24.870;2023-06-14T07:24:11;13.05;;;9.27;;
46411;SDS011;32113;42.012;24.870;2023-06-14T07:26:37;13.70;;;9.20;;
46411;SDS011;32113;42.012;24.870;2023-06-14T07:29:02;11.77;;;9.05;;
46411;SDS011;32113;42.012;24.870;2023-06-14T07:31:28;17.30;;;9.18;;
46411;SDS011;32113;42.012;24.870;2023-06-14T07:33:53;11.73;;;9.38;;
46411;SDS011;32113;42.012;24.870;2023-06-14T07:36:18;24.80;;;10.38;;
46411;SDS011;32113;42.012;24.870;2023-06-14T07:38:44;12.65;;;9.35;;
46411;SDS011;32113;42.012;24.870;2023-06-14T07:41:11;14.90;;;10.10;;
46411;SDS011;32113;42.012;24.870;2023-06-14T07:43:36;13.65;;;9.45;;
46411;SDS011;32113;42.012;24.870;2023-06-14T07:46:01;12.70;;;8.32;;
46411;SDS011;32113;42.012;24.870;2023-06-14T07:48:27;17.88;;;8.07;;
46411;SDS011;32113;42.012;24.870;2023-06-14T07:50:53;11.90;;;8.52;;
46411;SDS011;32113;42.012;24.870;2023-06-14T07:53:18;11.18;;;7.75;;
46411;SDS011;32113;42.012;24.870;2023-06-14T07:55:43;12.55;;;7.28;;
46411;SDS011;32113;42.012;24.870;2023-06-14T07:58:09;8.75;;;7.53;;
46411;SDS011;32113;42.012;24.870;2023-06-14T08:00:35;13.50;;;9.00;;
46411;SDS011;32113;42.012;24.870;2023-06-14T08:03:01;9.20;;;8.07;;
46411;SDS011;32113;42.012;24.870;2023-06-14T08:05:27;9.32;;;8.23;;
46411;SDS011;32113;42.012;24.870;2023-06-14T08:07:53;9.75;;;8.75;;
46411;SDS011;32113;42.012;24.870;2023-06-14T08:10:19;9.32;;;7.80;;
46411;SDS011;32113;42.012;24.870;2023-06-14T08:12:45;10.93;;;7.65;;
46411;SDS011;32113;42.012;24.870;2023-06-14T08:15:10;10.57;;;8.88;;
46411;SDS011;32113;42.012;24.870;2023-06-14T08:17:36;16.10;;;10.23;;
46411;SDS011;32113;42.012;24.870;2023-06-14T08:20:02;20.08;;;10.27;;
46411;SDS011;32113;42.012;24.870;2023-06-14T08:22:29;14.45;;;9.48;;
46411;SDS011;32113;42.012;24.870;2023-06-14T08:24:57;11.98;;;9.20;;
46411;SDS011;32113;42.012;24.870;2023-06-14T08:27:23;10.00;;;9.00;;
46411;SDS011;32113;42.012;24.870;2023-06-14T08:29:48;11.73;;;9.05;;
46411;SDS011;32113;42.012;24.870;2023-06-14T08:32:13;19.58;;;9.07;;
46411;SDS011;32113;42.012;24.870;2023-06-14T08:34:39;15.88;;;9.30;;
46411;SDS011;32113;42.012;24.870;2023-06-14T08:37:04;11.60;;;9.35;;
46411;SDS011;32113;42.012;24.870;2023-06-14T08:39:30;15.82;;;9.88;;
46411;SDS011;32113;42.012;24.870;2023-06-14T08:41:55;15.93;;;10.40;;
46411;SDS011;32113;42.012;24.870;2023-06-14T08:44:22;11.75;;;10.55;;
46411;SDS011;32113;42.012;24.870;2023-06-14T08:46:47;16.45;;;10.73;;
46411;SDS011;32113;42.012;24.870;2023-06-14T08:49:13;13.43;;;10.35;;
46411;SDS011;32113;42.012;24.870;2023-06-14T08:51:41;14.20;;;9.70;;
46411;SDS011;32113;42.012;24.870;2023-06-14T08:54:08;14.05;;;9.27;;
46411;SDS011;32113;42.012;24.870;2023-06-14T08:56:37;11.70;;;9.90;;
46411;SDS011;32113;42.012;24.870;2023-06-14T08:59:03;14.77;;;11.18;;
46411;SDS011;32113;42.012;24.870;2023-06-14T09:01:32;14.55;;;11.60;;
46411;SDS011;32113;42.012;24.870;2023-06-14T09:03:59;13.48;;;11.65;;
46411;SDS011;32113;42.012;24.870;2023-06-14T09:06:24;13.70;;;10.90;;
46411;SDS011;32113;42.012;24.870;2023-06-14T09:08:50;14.90;;;12.13;;
46411;SDS011;32113;42.012;24.870;2023-06-14T09:11:18;16.23;;;11.82;;
46411;SDS011;32113;42.012;24.870;2023-06-14T09:13:44;13.23;;;11.80;;
46411;SDS011;32113;42.012;24.870;2023-06-14T09:16:11;14.60;;;11.32;;
46411;SDS011;32113;42.012;24.870;2023-06-14T09:21:06;17.02;;;11.88;;
46411;SDS011;32113;42.012;24.870;2023-06-14T09:23:38;13.68;;;11.35;;
46411;SDS011;32113;42.012;24.870;2023-06-14T09:28:41;15.98;;;12.77;;
46411;SDS011;32113;42.012;24.870;2023-06-14T09:31:11;17.65;;;12.60;;
46411;SDS011;32113;42.012;24.870;2023-06-14T09:33:37;22.52;;;13.23;;
46411;SDS011;32113;42.012;24.870;2023-06-14T09:36:03;16.92;;;12.65;;
46411;SDS011;32113;42.012;24.870;2023-06-14T09:38:30;20.60;;;13.18;;
46411;SDS011;32113;42.012;24.870;2023-06-14T09:40:58;15.48;;;13.23;;
46411;SDS011;32113;42.012;24.870;2023-06-14T09:43:24;18.30;;;13.57;;
46411;SDS011;32113;42.012;24.870;2023-06-14T09:45:52;18.42;;;15.32;;
46411;SDS011;32113;42.012;24.870;2023-06-14T09:48:19;17.98;;;15.07;;
46411;SDS011;32113;42.012;24.870;2023-06-14T09:50:45;17.80;;;15.90;;
46411;SDS011;32113;42.012;24.870;2023-06-14T09:55:37;20.92;;;15.05;;
46411;SDS011;32113;42.012;24.870;2023-06-14T09:58:05;24.13;;;15.05;;
46411;SDS011;32113;42.012;24.870;2023-06-14T10:00:32;21.58;;;14.77;;
46411;SDS011;32113;42.012;24.870;2023-06-14T10:03:06;18.90;;;14.63;;
46411;SDS011;32113;42.012;24.870;2023-06-14T10:05:37;20.35;;;14.35;;
46411;SDS011;32113;42.012;24.870;2023-06-14T10:08:05;19.67;;;14.93;;
46411;SDS011;32113;42.012;24.870;2023-06-14T10:10:33;15.07;;;13.48;;
46411;SDS011;32113;42.012;24.870;2023-06-14T10:12:59;17.98;;;14.77;;
46411;SDS011;32113;42.012;24.870;2023-06-14T10:15:37;15.93;;;14.35;;
46411;SDS011;32113;42.012;24.870;2023-06-14T10:20:33;19.83;;;15.30;;
46411;SDS011;32113;42.012;24.870;2023-06-14T10:23:09;16.33;;;14.73;;
46411;SDS011;32113;42.012;24.870;2023-06-14T10:25:38;16.58;;;14.88;;
46411;SDS011;32113;42.012;24.870;2023-06-14T10:28:16;16.08;;;14.45;;
46411;SDS011;32113;42.012;24.870;2023-06-14T10:31:01;16.55;;;14.80;;
46411;SDS011;32113;42.012;24.870;2023-06-14T10:33:48;17.90;;;13.73;;
46411;SDS011;32113;42.012;24.870;2023-06-14T10:38:56;17.52;;;15.27;;
46411;SDS011;32113;42.012;24.870;2023-06-14T10:41:28;15.57;;;13.80;;
46411;SDS011;32113;42.012;24.870;2023-06-14T10:46:37;15.70;;;14.13;;
46411;SDS011;32113;42.012;24.870;2023-06-14T10:49:04;15.52;;;14.00;;
46411;SDS011;32113;42.012;24.870;2023-06-14T10:51:30;16.48;;;13.30;;
46411;SDS011;32113;42.012;24.870;2023-06-14T10:54:14;14.25;;;12.75;;
46411;SDS011;32113;42.012;24.870;2023-06-14T10:56:46;15.95;;;13.15;;
46411;SDS011;32113;42.012;24.870;2023-06-14T10:59:16;17.48;;;13.57;;
46411;SDS011;32113;42.012;24.870;2023-06-14T11:04:14;15.50;;;13.52;;
46411;SDS011;32113;42.012;24.870;2023-06-14T11:09:24;15.45;;;13.82;;
46411;SDS011;32113;42.012;24.870;2023-06-14T11:11:57;19.47;;;13.73;;
46411;SDS011;32113;42.012;24.870;2023-06-14T11:14:23;14.48;;;12.93;;
46411;SDS011;32113;42.012;24.870;2023-06-14T11:16:49;14.80;;;13.27;;
46411;SDS011;32113;42.012;24.870;2023-06-14T11:19:15;15.70;;;14.15;;
46411;SDS011;32113;42.012;24.870;2023-06-14T11:21:42;20.35;;;14.35;;
46411;SDS011;32113;42.012;24.870;2023-06-14T11:24:10;16.45;;;13.45;;
46411;SDS011;32113;42.012;24.870;2023-06-14T11:26:37;16.98;;;13.75;;
46411;SDS011;32113;42.012;24.870;2023-06-14T11:29:03;16.13;;;14.50;;
46411;SDS011;32113;42.012;24.870;2023-06-14T11:31:28;17.08;;;13.77;;
46411;SDS011;32113;42.012;24.870;2023-06-14T11:33:55;14.98;;;13.43;;
46411;SDS011;32113;42.012;24.870;2023-06-14T11:36:30;15.15;;;13.70;;
46411;SDS011;32113;42.012;24.870;2023-06-14T11:39:01;17.52;;;13.90;;
46411;SDS011;32113;42.012;24.870;2023-06-14T11:41:46;14.40;;;13.07;;
46411;SDS011;32113;42.012;24.870;2023-06-14T11:44:11;14.57;;;13.07;;
46411;SDS011;32113;42.012;24.870;2023-06-14T11:46:37;17.33;;;13.98;;
46411;SDS011;32113;42.012;24.870;2023-06-14T11:49:03;15.07;;;13.45;;
46411;SDS011;32113;42.012;24.870;2023-06-14T11:51:33;18.23;;;13.80;;
46411;SDS011;32113;42.012;24.870;2023-06-14T11:54:00;16.38;;;13.95;;
46411;SDS011;32113;42.012;24.870;2023-06-14T11:56:27;18.75;;;14.43;;
46411;SDS011;32113;42.012;24.870;2023-06-14T11:58:53;15.63;;;13.75;;
46411;SDS011;32113;42.012;24.870;2023-06-14T12:01:22;14.93;;;13.43;;
46411;SDS011;32113;42.012;24.870;2023-06-14T12:03:48;15.55;;;13.55;;
46411;SDS011;32113;42.012;24.870;2023-06-14T12:06:15;14.63;;;13.13;;
46411;SDS011;32113;42.012;24.870;2023-06-14T12:08:40;18.67;;;13.52;;
46411;SDS011;32113;42.012;24.870;2023-06-14T12:13:40;14.55;;;12.60;;
46411;SDS011;32113;42.012;24.870;2023-06-14T12:16:09;16.65;;;12.68;;
46411;SDS011;32113;42.012;24.870;2023-06-14T12:18:36;14.35;;;12.93;;
46411;SDS011;32113;42.012;24.870;2023-06-14T12:21:07;16.17;;;11.30;;
46411;SDS011;32113;42.012;24.870;2023-06-14T12:23:53;13.40;;;11.10;;
46411;SDS011;32113;42.012;24.870;2023-06-14T12:26:18;17.45;;;13.00;;
46411;SDS011;32113;42.012;24.870;2023-06-14T12:28:45;13.80;;;12.50;;
46411;SDS011;32113;42.012;24.870;2023-06-14T12:31:12;13.05;;;11.40;;
46411;SDS011;32113;42.012;24.870;2023-06-14T12:33:41;13.52;;;12.15;;
46411;SDS011;32113;42.012;24.870;2023-06-14T12:36:08;12.38;;;11.15;;
46411;SDS011;32113;42.012;24.870;2023-06-14T12:38:35;12.25;;;11.05;;
46411;SDS011;32113;42.012;24.870;2023-06-14T12:41:01;13.20;;;10.80;;
46411;SDS011;32113;42.012;24.870;2023-06-14T12:43:26;14.07;;;10.23;;
46411;SDS011;32113;42.012;24.870;2023-06-14T12:45:52;10.80;;;9.57;;
46411;SDS011;32113;42.012;24.870;2023-06-14T12:48:18;12.27;;;10.77;;
46411;SDS011;32113;42.012;24.870;2023-06-14T12:50:45;12.93;;;10.82;;
46411;SDS011;32113;42.012;24.870;2023-06-14T12:53:10;12.13;;;10.38;;
46411;SDS011;32113;42.012;24.870;2023-06-14T12:55:36;11.27;;;10.07;;
46411;SDS011;32113;42.012;24.870;2023-06-14T12:58:01;11.65;;;9.93;;
46411;SDS011;32113;42.012;24.870;2023-06-14T13:00:27;10.02;;;9.07;;
46411;SDS011;32113;42.012;24.870;2023-06-14T13:02:52;10.85;;;9.73;;
46411;SDS011;32113;42.012;24.870;2023-06-14T13:05:18;11.75;;;9.73;;
46411;SDS011;32113;42.012;24.870;2023-06-14T13:07:43;10.95;;;9.85;;
46411;SDS011;32113;42.012;24.870;2023-06-14T13:10:09;9.02;;;8.13;;
46411;SDS011;32113;42.012;24.870;2023-06-14T13:12:35;11.45;;;8.75;;
46411;SDS011;32113;42.012;24.870;2023-06-14T13:15:01;15.20;;;9.60;;
46411;SDS011;32113;42.012;24.870;2023-06-14T13:17:26;12.70;;;9.50;;
46411;SDS011;32113;42.012;24.870;2023-06-14T13:19:52;9.52;;;8.73;;
46411;SDS011;32113;42.012;24.870;2023-06-14T13:22:17;11.68;;;8.63;;
46411;SDS011;32113;42.012;24.870;2023-06-14T13:24:43;8.95;;;8.05;;
46411;SDS011;32113;42.012;24.870;2023-06-14T13:27:08;8.57;;;7.50;;
46411;SDS011;32113;42.012;24.870;2023-06-14T13:29:33;8.75;;;7.20;;
46411;SDS011;32113;42.012;24.870;2023-06-14T13:32:01;11.60;;;7.47;;
46411;SDS011;32113;42.012;24.870;2023-06-14T13:34:27;16.33;;;7.55;;
46411;SDS011;32113;42.012;24.870;2023-06-14T13:36:52;12.20;;;7.57;;
46411;SDS011;32113;42.012;24.870;2023-06-14T13:39:18;9.10;;;7.40;;
46411;SDS011;32113;42.012;24.870;2023-06-14T13:41:44;13.68;;;7.60;;
46411;SDS011;32113;42.012;24.870;2023-06-14T13:44:09;12.07;;;7.45;;
46411;SDS011;32113;42.012;24.870;2023-06-14T13:46:39;8.20;;;6.88;;
46411;SDS011;32113;42.012;24.870;2023-06-14T13:49:04;10.40;;;7.07;;
46411;SDS011;32113;42.012;24.870;2023-06-14T13:51:30;10.05;;;7.22;;
46411;SDS011;32113;42.012;24.870;2023-06-14T13:53:56;11.57;;;7.35;;
46411;SDS011;32113;42.012;24.870;2023-06-14T13:56:21;10.00;;;7.30;;
46411;SDS011;32113;42.012;24.870;2023-06-14T13:58:49;11.00;;;7.18;;
46411;SDS011;32113;42.012;24.870;2023-06-14T14:01:15;9.02;;;7.05;;
46411;SDS011;32113;42.012;24.870;2023-06-14T14:03:40;9.95;;;7.68;;
46411;SDS011;32113;42.012;24.870;2023-06-14T14:06:06;10.48;;;7.38;;
46411;SDS011;32113;42.012;24.870;2023-06-14T14:08:32;11.38;;;7.60;;
46411;SDS011;32113;42.012;24.870;2023-06-14T14:10:58;9.15;;;6.22;;
46411;SDS011;32113;42.012;24.870;2023-06-14T14:13:23;10.38;;;6.38;;
46411;SDS011;32113;42.012;24.870;2023-06-14T14:15:50;17.60;;;7.18;;
46411;SDS011;32113;42.012;24.870;2023-06-14T14:18:15;8.60;;;6.88;;
46411;SDS011;32113;42.012;24.870;2023-06-14T14:20:41;10.65;;;6.57;;
46411;SDS011;32113;42.012;24.870;2023-06-14T14:23:06;8.68;;;7.53;;
46411;SDS011;32113;42.012;24.870;2023-06-14T14:25:32;11.45;;;6.97;;
46411;SDS011;32113;42.012;24.870;2023-06-14T14:27:57;11.27;;;7.22;;
46411;SDS011;32113;42.012;24.870;2023-06-14T14:30:23;10.68;;;7.18;;
46411;SDS011;32113;42.012;24.870;2023-06-14T14:32:48;7.97;;;6.70;;
46411;SDS011;32113;42.012;24.870;2023-06-14T14:35:17;9.77;;;6.45;;
46411;SDS011;32113;42.012;24.870;2023-06-14T14:37:43;11.38;;;6.25;;
46411;SDS011;32113;42.012;24.870;2023-06-14T14:40:09;9.57;;;6.15;;